Time;durP1;ratioP1;P1;durP2;ratioP2;P2;SDS_P1;SDS_P2;PMS_P1;PMS_P2;Temp;Humidity;BMP_temperature;BMP_pressure;BME280_temperature;BME280_humidity;BME280_pressure;Samples;Min_cycle;Max_cycle;Signal;HPM_P1;HPM_P2
2022/09/13 00:00:33;;;;;;;8.82;2.63;;;;;;;;;;7388119;19;20010;-73
2022/09/13 00:02:59;;;;;;;6.03;3.05;;;;;;;;;;7384929;19;20007;-73
2022/09/13 00:05:24;;;;;;;4.72;2.72;;;;;;;;;;7387871;19;20489;-73
2022/09/13 00:07:50;;;;;;;4.93;2.88;;;;;;;;;;7387141;19;20077;-72
2022/09/13 00:10:15;;;;;;;5.03;2.85;;;;;;;;;;7384011;19;20067;-72
2022/09/13 00:12:41;;;;;;;6.65;3.15;;;;;;;;;;7388028;19;20003;-72
2022/09/13 00:15:06;;;;;;;5.82;3.10;;;;;;;;;;7389246;19;20011;-72
2022/09/13 00:17:32;;;;;;;10.07;3.30;;;;;;;;;;7396342;19;20002;-72
2022/09/13 00:19:57;;;;;;;5.88;3.20;;;;;;;;;;7389919;19;20002;-74
2022/09/13 00:22:22;;;;;;;4.85;2.78;;;;;;;;;;7391922;19;20026;-72
2022/09/13 00:24:51;;;;;;;6.07;3.45;;;;;;;;;;7393535;19;19999;-72
2022/09/13 00:27:16;;;;;;;6.00;3.10;;;;;;;;;;7393559;19;20005;-72
2022/09/13 00:29:42;;;;;;;4.95;2.95;;;;;;;;;;7392017;19;19999;-73
2022/09/13 00:32:07;;;;;;;6.75;3.35;;;;;;;;;;7394221;19;19995;-73
2022/09/13 00:34:32;;;;;;;5.50;2.60;;;;;;;;;;7393523;19;20009;-72
2022/09/13 00:36:58;;;;;;;5.85;3.42;;;;;;;;;;7392489;19;20054;-73
2022/09/13 00:39:23;;;;;;;6.72;3.53;;;;;;;;;;7390959;19;20109;-72
2022/09/13 00:41:48;;;;;;;6.30;3.58;;;;;;;;;;7393821;19;20032;-72
2022/09/13 00:44:45;;;;;;;6.80;3.67;;;;;;;;;;7394063;19;20007;-72
2022/09/13 00:47:14;;;;;;;5.07;3.17;;;;;;;;;;7392611;19;20007;-72
2022/09/13 00:49:41;;;;;;;5.05;3.10;;;;;;;;;;7392010;19;20077;-72
2022/09/13 00:52:11;;;;;;;7.53;3.90;;;;;;;;;;7393160;19;19991;-73
2022/09/13 00:54:42;;;;;;;5.22;2.80;;;;;;;;;;7397055;19;20041;-72
2022/09/13 00:57:09;;;;;;;4.78;3.17;;;;;;;;;;7394315;19;20076;-73
2022/09/13 00:59:41;;;;;;;5.28;3.13;;;;;;;;;;7391791;19;20006;-72
2022/09/13 01:02:08;;;;;;;6.78;3.25;;;;;;;;;;7393577;19;20002;-72
2022/09/13 01:04:35;;;;;;;6.45;3.65;;;;;;;;;;7393866;19;20058;-72
2022/09/13 01:07:10;;;;;;;6.10;3.35;;;;;;;;;;7392495;19;19999;-72
2022/09/13 01:09:40;;;;;;;5.95;3.50;;;;;;;;;;7391731;19;20003;-73
2022/09/13 01:12:09;;;;;;;6.97;3.63;;;;;;;;;;7393578;19;20010;-73
2022/09/13 01:14:35;;;;;;;5.15;3.45;;;;;;;;;;7392547;19;19998;-73
2022/09/13 01:17:02;;;;;;;6.38;3.15;;;;;;;;;;7393266;19;20572;-73
2022/09/13 01:19:30;;;;;;;6.15;3.05;;;;;;;;;;7391557;19;20027;-73
2022/09/13 01:22:13;;;;;;;6.03;3.38;;;;;;;;;;7392315;19;20018;-73
2022/09/13 01:24:55;;;;;;;5.13;2.85;;;;;;;;;;7392317;19;20003;-73
2022/09/13 01:28:05;;;;;;;6.13;3.63;;;;;;;;;;7392919;19;19999;-73
2022/09/13 01:31:18;;;;;;;5.55;2.78;;;;;;;;;;7391600;19;20326;-73
2022/09/13 01:34:11;;;;;;;8.40;4.25;;;;;;;;;;7390091;19;20003;-73
2022/09/13 01:37:14;;;;;;;5.60;3.00;;;;;;;;;;7393530;19;20618;-72
2022/09/13 01:40:04;;;;;;;4.47;2.83;;;;;;;;;;7390471;19;20002;-73
2022/09/13 01:42:46;;;;;;;4.80;2.80;;;;;;;;;;7391596;19;20484;-73
2022/09/13 01:45:20;;;;;;;6.40;3.28;;;;;;;;;;7392515;19;20074;-73
2022/09/13 01:47:51;;;;;;;5.38;3.58;;;;;;;;;;7391858;19;20344;-72
2022/09/13 01:50:33;;;;;;;5.38;3.00;;;;;;;;;;7393612;19;20001;-74
2022/09/13 01:53:24;;;;;;;8.77;3.03;;;;;;;;;;7391014;19;20100;-72
2022/09/13 01:55:51;;;;;;;;;;;;;;;;;;7391327;19;20090;-73
2022/09/13 01:58:27;;;;;;;4.90;2.67;;;;;;;;;;7386861;19;19919;-73
2022/09/13 02:01:34;;;;;;;7.18;3.45;;;;;;;;;;7385920;19;20007;-73
2022/09/13 02:04:08;;;;;;;5.03;2.90;;;;;;;;;;7383302;19;20006;-72
2022/09/13 02:06:44;;;;;;;7.60;3.72;;;;;;;;;;7384365;19;19998;-73
2022/09/13 02:09:15;;;;;;;6.45;3.58;;;;;;;;;;7385671;19;20006;-73
2022/09/13 02:11:43;;;;;;;5.28;2.92;;;;;;;;;;7388852;19;20006;-73
2022/09/13 02:14:34;;;;;;;7.32;3.67;;;;;;;;;;7388545;19;20084;-73
2022/09/13 02:17:07;;;;;;;6.00;3.28;;;;;;;;;;7391446;19;20007;-73
2022/09/13 02:19:42;;;;;;;6.45;2.85;;;;;;;;;;7389248;19;20002;-73
2022/09/13 02:22:10;;;;;;;5.90;3.30;;;;;;;;;;7393009;19;20009;-73
2022/09/13 02:24:39;;;;;;;5.00;3.05;;;;;;;;;;7390773;19;20005;-73
2022/09/13 02:27:13;;;;;;;5.72;3.33;;;;;;;;;;7389459;19;20013;-73
2022/09/13 02:29:43;;;;;;;5.38;2.70;;;;;;;;;;7389046;19;20099;-73
2022/09/13 02:32:11;;;;;;;5.60;2.80;;;;;;;;;;7393534;19;20470;-73
2022/09/13 02:35:02;;;;;;;5.65;3.08;;;;;;;;;;7386444;19;20014;-72
2022/09/13 02:37:31;;;;;;;5.22;3.20;;;;;;;;;;7389859;19;20066;-72
2022/09/13 02:40:03;;;;;;;4.50;2.88;;;;;;;;;;7386828;19;20027;-73
2022/09/13 02:42:37;;;;;;;6.82;3.92;;;;;;;;;;7389697;19;20023;-72
2022/09/13 02:45:05;;;;;;;7.03;3.45;;;;;;;;;;7390004;19;20464;-72
2022/09/13 02:47:45;;;;;;;10.05;3.65;;;;;;;;;;7390373;19;20010;-73
2022/09/13 02:50:32;;;;;;;6.63;2.85;;;;;;;;;;7390045;19;20462;-71
2022/09/13 02:53:29;;;;;;;5.80;3.50;;;;;;;;;;7390328;19;19995;-72
2022/09/13 02:56:22;;;;;;;5.70;3.35;;;;;;;;;;7388572;19;20403;-72
2022/09/13 02:58:50;;;;;;;8.05;4.03;;;;;;;;;;7389155;19;19999;-72
2022/09/13 03:01:16;;;;;;;6.25;3.08;;;;;;;;;;7389959;19;20014;-72
2022/09/13 03:03:43;;;;;;;7.90;3.85;;;;;;;;;;7388223;19;19999;-72
2022/09/13 03:06:08;;;;;;;9.50;4.10;;;;;;;;;;7389621;19;20006;-71
2022/09/13 03:08:36;;;;;;;5.80;3.83;;;;;;;;;;7389288;19;20002;-73
2022/09/13 03:11:33;;;;;;;6.43;3.88;;;;;;;;;;7389022;19;20003;-72
2022/09/13 03:14:09;;;;;;;7.13;3.60;;;;;;;;;;7386361;19;20057;-72
2022/09/13 03:16:53;;;;;;;6.50;3.25;;;;;;;;;;7389828;19;20002;-72
2022/09/13 03:19:39;;;;;;;7.50;3.60;;;;;;;;;;7388521;19;20659;-71
2022/09/13 03:22:26;;;;;;;5.88;4.03;;;;;;;;;;7388908;19;20023;-71
2022/09/13 03:25:29;;;;;;;6.57;3.33;;;;;;;;;;7389693;19;20003;-72
2022/09/13 03:28:16;;;;;;;7.28;3.28;;;;;;;;;;7388951;19;19998;-72
2022/09/13 03:30:49;;;;;;;8.70;4.15;;;;;;;;;;7389119;19;19999;-72
2022/09/13 03:33:51;;;;;;;4.75;2.97;;;;;;;;;;7387997;19;19999;-73
2022/09/13 03:36:41;;;;;;;7.28;3.65;;;;;;;;;;7386116;19;20002;-72
2022/09/13 03:39:28;;;;;;;7.97;3.92;;;;;;;;;;7387518;19;20002;-73
2022/09/13 03:41:58;;;;;;;7.30;3.75;;;;;;;;;;7387917;19;20007;-72
2022/09/13 03:44:25;;;;;;;5.53;2.80;;;;;;;;;;7388724;19;20419;-73
2022/09/13 03:46:56;;;;;;;5.80;3.33;;;;;;;;;;7387760;19;20918;-73
2022/09/13 03:49:24;;;;;;;7.55;4.63;;;;;;;;;;7384744;19;20014;-73
2022/09/13 03:51:51;;;;;;;6.55;3.65;;;;;;;;;;7387025;19;20070;-72
2022/09/13 03:54:26;;;;;;;5.25;3.55;;;;;;;;;;7387637;19;19995;-72
2022/09/13 03:57:11;;;;;;;7.07;3.17;;;;;;;;;;7388048;19;20005;-72
2022/09/13 03:59:40;;;;;;;5.63;3.17;;;;;;;;;;7384646;19;20070;-72
2022/09/13 04:02:10;;;;;;;6.65;3.92;;;;;;;;;;7386980;19;20011;-73
2022/09/13 04:04:36;;;;;;;7.93;4.07;;;;;;;;;;7387658;19;20612;-73
2022/09/13 04:07:03;;;;;;;6.35;3.80;;;;;;;;;;7387337;19;20005;-73
2022/09/13 04:09:29;;;;;;;7.05;3.60;;;;;;;;;;7386055;19;20486;-73
2022/09/13 04:11:54;;;;;;;6.90;3.53;;;;;;;;;;7385239;19;19999;-73
2022/09/13 04:14:20;;;;;;;7.45;4.32;;;;;;;;;;7386680;19;20001;-73
2022/09/13 04:16:45;;;;;;;8.77;4.72;;;;;;;;;;7389687;19;19994;-73
2022/09/13 04:19:11;;;;;;;5.53;3.08;;;;;;;;;;7385869;19;20657;-73
2022/09/13 04:21:37;;;;;;;7.63;4.05;;;;;;;;;;7384543;19;19999;-73
2022/09/13 04:24:02;;;;;;;7.38;3.72;;;;;;;;;;7387052;19;20033;-72
2022/09/13 04:26:28;;;;;;;10.70;4.35;;;;;;;;;;7387431;19;20007;-73
2022/09/13 04:28:53;;;;;;;9.43;3.70;;;;;;;;;;7386144;19;20006;-73
2022/09/13 04:31:18;;;;;;;6.40;3.60;;;;;;;;;;7386749;19;19990;-73
2022/09/13 04:33:44;;;;;;;7.38;3.55;;;;;;;;;;7391212;19;19998;-73
2022/09/13 04:36:09;;;;;;;6.82;4.35;;;;;;;;;;7384773;19;20002;-73
2022/09/13 04:38:36;;;;;;;7.93;3.88;;;;;;;;;;7385790;19;19995;-73
2022/09/13 04:41:01;;;;;;;5.97;3.88;;;;;;;;;;7385969;19;19998;-73
2022/09/13 04:43:26;;;;;;;7.97;3.63;;;;;;;;;;7386754;19;20054;-73
2022/09/13 04:45:52;;;;;;;7.53;3.95;;;;;;;;;;7386364;19;20397;-73
2022/09/13 04:48:18;;;;;;;7.55;3.50;;;;;;;;;;7385574;19;20696;-73
2022/09/13 04:50:52;;;;;;;8.25;3.47;;;;;;;;;;7381045;19;20511;-72
2022/09/13 04:53:21;;;;;;;7.30;3.88;;;;;;;;;;7382249;19;20504;-72
2022/09/13 04:55:46;;;;;;;7.43;3.78;;;;;;;;;;7384669;19;20032;-72
2022/09/13 04:58:12;;;;;;;7.07;3.63;;;;;;;;;;7385581;19;20476;-72
2022/09/13 05:00:37;;;;;;;6.80;4.20;;;;;;;;;;7394217;19;19998;-73
2022/09/13 05:03:03;;;;;;;7.43;3.55;;;;;;;;;;7390909;19;19999;-73
2022/09/13 05:05:29;;;;;;;6.97;3.75;;;;;;;;;;7395889;19;19990;-73
2022/09/13 05:07:58;;;;;;;9.02;4.70;;;;;;;;;;7393114;19;19999;-73
2022/09/13 05:10:23;;;;;;;9.82;4.63;;;;;;;;;;7393535;19;20616;-73
2022/09/13 05:12:49;;;;;;;8.80;3.83;;;;;;;;;;7393365;19;19987;-73
2022/09/13 05:15:17;;;;;;;8.77;4.85;;;;;;;;;;7395683;19;20002;-76
2022/09/13 05:17:42;;;;;;;8.30;4.20;;;;;;;;;;7396974;19;20012;-73
2022/09/13 05:20:08;;;;;;;5.90;3.47;;;;;;;;;;7392623;19;19991;-72
2022/09/13 05:22:33;;;;;;;6.00;3.28;;;;;;;;;;7397024;19;19995;-73
2022/09/13 05:24:58;;;;;;;7.93;3.75;;;;;;;;;;7397571;19;20011;-72
2022/09/13 05:27:24;;;;;;;8.25;4.20;;;;;;;;;;7393424;19;19987;-72
2022/09/13 05:29:49;;;;;;;11.20;4.68;;;;;;;;;;7393096;19;19999;-72
2022/09/13 05:32:14;;;;;;;6.97;3.78;;;;;;;;;;7392047;19;20056;-72
2022/09/13 05:34:43;;;;;;;8.23;4.38;;;;;;;;;;7391764;19;19991;-73
2022/09/13 05:37:08;;;;;;;7.32;3.83;;;;;;;;;;7391160;19;20009;-72
2022/09/13 05:39:35;;;;;;;4.75;3.15;;;;;;;;;;7388731;19;20050;-71
2022/09/13 05:42:00;;;;;;;7.25;3.78;;;;;;;;;;7394817;19;19999;-72
2022/09/13 05:44:26;;;;;;;6.35;3.67;;;;;;;;;;7391731;19;20009;-74
2022/09/13 05:46:51;;;;;;;6.90;4.03;;;;;;;;;;7394166;19;20003;-71
2022/09/13 05:49:16;;;;;;;5.13;3.05;;;;;;;;;;7390781;19;20408;-72
2022/09/13 05:51:42;;;;;;;5.78;3.22;;;;;;;;;;7391980;19;20075;-72
2022/09/13 05:54:10;;;;;;;7.07;3.72;;;;;;;;;;7394886;19;20058;-72
2022/09/13 05:56:36;;;;;;;8.45;3.78;;;;;;;;;;7394930;19;20002;-71
2022/09/13 05:59:01;;;;;;;6.82;3.92;;;;;;;;;;7392046;19;20023;-72
2022/09/13 06:01:28;;;;;;;6.45;3.75;;;;;;;;;;7393571;19;19994;-71
2022/09/13 06:03:55;;;;;;;5.95;3.50;;;;;;;;;;7394435;19;20003;-73
2022/09/13 06:06:22;;;;;;;6.68;3.78;;;;;;;;;;7393802;19;19999;-73
2022/09/13 06:08:51;;;;;;;7.97;3.65;;;;;;;;;;7391460;19;20452;-73
2022/09/13 06:11:16;;;;;;;5.43;3.42;;;;;;;;;;7390633;19;20006;-73
2022/09/13 06:13:44;;;;;;;6.28;2.80;;;;;;;;;;7393533;19;20016;-73
2022/09/13 06:16:11;;;;;;;7.65;3.75;;;;;;;;;;7392494;19;20027;-72
2022/09/13 06:18:37;;;;;;;6.72;3.78;;;;;;;;;;7388371;19;20497;-71
2022/09/13 06:21:07;;;;;;;7.45;3.83;;;;;;;;;;7391122;19;20078;-72
2022/09/13 06:23:33;;;;;;;7.30;3.17;;;;;;;;;;7394552;19;19999;-72
2022/09/13 06:26:08;;;;;;;9.65;3.80;;;;;;;;;;7393665;19;20133;-72
2022/09/13 06:28:33;;;;;;;6.63;3.38;;;;;;;;;;7391146;19;20510;-75
2022/09/13 06:31:11;;;;;;;8.20;3.85;;;;;;;;;;7393222;19;19991;-75
2022/09/13 06:33:39;;;;;;;5.30;3.13;;;;;;;;;;7393490;19;20322;-70
2022/09/13 06:36:07;;;;;;;6.57;3.92;;;;;;;;;;7389069;19;20011;-70
2022/09/13 06:38:32;;;;;;;8.40;3.00;;;;;;;;;;7390319;19;19999;-71
2022/09/13 06:41:06;;;;;;;6.00;4.07;;;;;;;;;;7391231;19;19997;-70
2022/09/13 06:43:32;;;;;;;5.45;3.08;;;;;;;;;;7392006;19;20009;-74
2022/09/13 06:46:02;;;;;;;9.82;3.65;;;;;;;;;;7391336;19;20003;-75
2022/09/13 06:48:32;;;;;;;15.87;4.20;;;;;;;;;;7394006;19;20363;-76
2022/09/13 06:50:59;;;;;;;6.37;3.23;;;;;;;;;;7390251;19;20583;-76
2022/09/13 06:53:27;;;;;;;7.55;3.75;;;;;;;;;;7393142;19;20026;-78
2022/09/13 06:56:10;;;;;;;6.70;3.55;;;;;;;;;;7390103;19;20066;-81
2022/09/13 06:58:37;;;;;;;6.57;3.75;;;;;;;;;;7393765;19;19995;-82
2022/09/13 07:01:20;;;;;;;7.15;3.85;;;;;;;;;;7392857;19;20066;-74
2022/09/13 07:03:48;;;;;;;6.55;3.03;;;;;;;;;;7385636;19;20468;-75
2022/09/13 07:06:18;;;;;;;8.80;3.67;;;;;;;;;;7388062;19;20095;-75
2022/09/13 07:08:45;;;;;;;8.73;2.80;;;;;;;;;;7388068;19;19990;-76
2022/09/13 07:11:12;;;;;;;5.85;3.15;;;;;;;;;;7390290;19;20011;-76
2022/09/13 07:13:39;;;;;;;7.55;4.28;;;;;;;;;;7388713;19;20037;-75
2022/09/13 07:16:11;;;;;;;9.68;4.53;;;;;;;;;;7390099;19;20159;-75
2022/09/13 07:18:37;;;;;;;6.18;3.38;;;;;;;;;;7386776;19;20027;-78
2022/09/13 07:21:05;;;;;;;11.23;3.42;;;;;;;;;;7391068;19;20532;-77
2022/09/13 07:23:32;;;;;;;7.28;4.55;;;;;;;;;;7392413;19;19998;-75
2022/09/13 07:26:03;;;;;;;10.15;4.10;;;;;;;;;;7392054;19;20006;-77
2022/09/13 07:28:29;;;;;;;6.15;3.22;;;;;;;;;;7389564;19;19998;-75
2022/09/13 07:30:57;;;;;;;7.97;4.35;;;;;;;;;;7387917;19;20062;-79
2022/09/13 07:33:24;;;;;;;8.25;3.80;;;;;;;;;;7390947;19;19995;-77
2022/09/13 07:35:56;;;;;;;7.18;3.85;;;;;;;;;;7389747;19;20652;-77
2022/09/13 07:38:22;;;;;;;7.47;3.80;;;;;;;;;;7392644;19;20019;-75
2022/09/13 07:40:57;;;;;;;6.20;3.00;;;;;;;;;;7387257;19;20006;-78
2022/09/13 07:43:23;;;;;;;6.85;3.80;;;;;;;;;;7388693;19;20004;-75
2022/09/13 07:45:56;;;;;;;7.78;4.22;;;;;;;;;;7392035;19;20054;-81
2022/09/13 07:48:22;;;;;;;6.35;3.78;;;;;;;;;;7392199;19;19995;-78
2022/09/13 07:51:14;;;;;;;7.05;4.30;;;;;;;;;;7390906;19;19994;-70
2022/09/13 07:53:40;;;;;;;7.60;3.78;;;;;;;;;;7390837;19;19999;-70
2022/09/13 07:56:09;;;;;;;6.07;3.67;;;;;;;;;;7389460;19;20007;-70
2022/09/13 07:58:36;;;;;;;6.97;3.33;;;;;;;;;;7390712;19;20033;-69
2022/09/13 08:01:26;;;;;;;6.82;3.55;;;;;;;;;;7387920;19;20340;-81
2022/09/13 08:03:57;;;;;;;8.45;3.78;;;;;;;;;;7391303;19;19995;-72
2022/09/13 08:06:23;;;;;;;7.15;3.50;;;;;;;;;;7389521;19;19990;-70
2022/09/13 08:08:49;;;;;;;7.47;4.40;;;;;;;;;;7387993;19;20003;-74
2022/09/13 08:11:20;;;;;;;12.88;3.88;;;;;;;;;;7387484;19;20010;-76
2022/09/13 08:13:47;;;;;;;9.68;3.25;;;;;;;;;;7389097;19;19995;-74
2022/09/13 08:16:13;;;;;;;6.85;3.10;;;;;;;;;;7389108;19;20329;-73
2022/09/13 08:18:46;;;;;;;6.40;3.58;;;;;;;;;;7387526;19;20483;-74
2022/09/13 08:21:12;;;;;;;6.60;4.00;;;;;;;;;;7390500;19;20710;-73
2022/09/13 08:23:38;;;;;;;6.43;3.53;;;;;;;;;;7389327;19;20468;-72
2022/09/13 08:26:05;;;;;;;8.73;3.58;;;;;;;;;;7388557;19;20027;-70
2022/09/13 08:28:31;;;;;;;8.07;4.47;;;;;;;;;;7385986;19;20347;-73
2022/09/13 08:31:02;;;;;;;8.15;3.63;;;;;;;;;;7389504;19;20001;-84
2022/09/13 08:33:28;;;;;;;6.80;3.63;;;;;;;;;;7390389;19;19995;-70
2022/09/13 08:35:54;;;;;;;8.20;3.72;;;;;;;;;;7395047;19;20002;-74
2022/09/13 08:38:20;;;;;;;6.20;3.30;;;;;;;;;;7395755;19;20006;-74
2022/09/13 08:40:50;;;;;;;7.07;3.35;;;;;;;;;;7396185;19;19994;-76
2022/09/13 08:43:58;;;;;;;7.53;3.60;;;;;;;;;;7397525;19;20528;-78
2022/09/13 08:46:35;;;;;;;7.32;4.18;;;;;;;;;;7399227;19;19995;-82
2022/09/13 08:49:06;;;;;;;5.93;3.03;;;;;;;;;;7392074;19;20009;-80
2022/09/13 08:51:39;;;;;;;7.85;3.50;;;;;;;;;;7396683;19;19991;-78
2022/09/13 08:54:05;;;;;;;5.82;3.50;;;;;;;;;;7397611;19;19997;-76
2022/09/13 08:56:48;;;;;;;6.35;3.42;;;;;;;;;;7396813;19;20412;-75
2022/09/13 08:59:32;;;;;;;8.98;3.80;;;;;;;;;;7392381;19;20002;-72
2022/09/13 09:02:40;;;;;;;6.55;4.03;;;;;;;;;;7395874;19;19995;-72
2022/09/13 09:05:26;;;;;;;11.70;3.83;;;;;;;;;;7394965;19;19998;-71
2022/09/13 09:08:05;;;;;;;6.60;3.85;;;;;;;;;;7394010;19;20006;-77
2022/09/13 09:10:47;;;;;;;6.45;3.08;;;;;;;;;;7389717;19;19995;-76
2022/09/13 09:13:28;;;;;;;6.15;3.10;;;;;;;;;;7391697;19;20447;-78
2022/09/13 09:16:23;;;;;;;6.40;4.05;;;;;;;;;;7392466;19;20082;-71
2022/09/13 09:18:48;;;;;;;7.00;3.55;;;;;;;;;;7395153;19;20038;-72
2022/09/13 09:21:17;;;;;;;8.60;3.15;;;;;;;;;;7395916;19;20559;-72
2022/09/13 09:23:52;;;;;;;6.22;3.60;;;;;;;;;;7393972;19;20019;-71
2022/09/13 09:26:19;;;;;;;6.07;3.78;;;;;;;;;;7396165;19;20089;-70
2022/09/13 09:28:53;;;;;;;5.95;3.58;;;;;;;;;;7394663;19;20002;-71
2022/09/13 09:31:28;;;;;;;6.18;3.40;;;;;;;;;;7394170;19;19987;-74
2022/09/13 09:34:06;;;;;;;5.50;3.33;;;;;;;;;;7394457;19;19994;-75
2022/09/13 09:36:39;;;;;;;8.77;3.45;;;;;;;;;;7395874;19;20079;-75
2022/09/13 09:39:09;;;;;;;7.68;3.75;;;;;;;;;;7394908;19;19998;-72
2022/09/13 09:41:37;;;;;;;8.27;4.10;;;;;;;;;;7391652;19;20054;-80
2022/09/13 09:44:22;;;;;;;7.50;4.00;;;;;;;;;;7393717;19;20006;-80
2022/09/13 09:46:54;;;;;;;7.60;3.83;;;;;;;;;;7396067;19;19994;-78
2022/09/13 09:52:22;;;;;;;5.50;3.70;;;;;;;;;;7396780;19;20127;-85
2022/09/13 09:54:49;;;;;;;7.57;4.35;;;;;;;;;;7386489;19;20057;-77
2022/09/13 09:57:17;;;;;;;9.18;4.97;;;;;;;;;;7394398;19;20492;-75
2022/09/13 09:59:42;;;;;;;8.00;4.43;;;;;;;;;;7398805;19;20017;-80
2022/09/13 10:02:16;;;;;;;12.20;7.05;;;;;;;;;;7394336;19;20051;-73
2022/09/13 10:04:41;;;;;;;7.95;4.60;;;;;;;;;;7395561;19;19999;-71
2022/09/13 10:07:25;;;;;;;7.65;4.30;;;;;;;;;;7397970;19;20417;-75
2022/09/13 10:10:04;;;;;;;6.88;4.25;;;;;;;;;;7393930;19;20007;-74
2022/09/13 10:12:33;;;;;;;6.57;3.72;;;;;;;;;;7389192;19;20014;-75
2022/09/13 10:15:20;;;;;;;8.15;3.83;;;;;;;;;;7389977;19;20002;-73
2022/09/13 10:18:14;;;;;;;6.82;3.63;;;;;;;;;;7391002;19;20002;-74
2022/09/13 10:20:40;;;;;;;7.88;4.05;;;;;;;;;;7399185;19;20015;-74
2022/09/13 10:23:14;;;;;;;11.05;3.80;;;;;;;;;;7397801;19;20070;-73
2022/09/13 10:25:42;;;;;;;7.40;4.18;;;;;;;;;;7397682;19;19995;-75
2022/09/13 10:28:14;;;;;;;7.43;4.10;;;;;;;;;;7397506;19;20396;-75
2022/09/13 10:30:52;;;;;;;8.18;4.35;;;;;;;;;;7399458;19;20015;-73
2022/09/13 10:33:38;;;;;;;7.47;3.97;;;;;;;;;;7398992;19;20006;-75
2022/09/13 10:36:06;;;;;;;9.48;4.25;;;;;;;;;;7395513;19;20003;-74
2022/09/13 10:38:37;;;;;;;9.20;4.90;;;;;;;;;;7388617;19;19999;-76
2022/09/13 10:41:07;;;;;;;14.43;7.18;;;;;;;;;;7392807;19;20002;-74
2022/09/13 10:43:34;;;;;;;13.68;8.13;;;;;;;;;;7393716;19;20349;-75
2022/09/13 10:46:02;;;;;;;8.95;5.45;;;;;;;;;;7417174;19;19999;-83
2022/09/13 10:48:29;;;;;;;10.18;5.40;;;;;;;;;;7426888;19;20010;-83
2022/09/13 10:51:20;;;;;;;6.40;4.40;;;;;;;;;;7425448;19;20034;-80
2022/09/13 10:53:46;;;;;;;7.75;4.22;;;;;;;;;;7424480;19;19995;-82
2022/09/13 10:56:26;;;;;;;9.20;5.00;;;;;;;;;;7417252;19;19995;-77
2022/09/13 10:59:14;;;;;;;8.38;4.03;;;;;;;;;;7400280;19;20006;-82
2022/09/13 11:01:54;;;;;;;7.65;4.25;;;;;;;;;;7400546;19;20021;-79
2022/09/13 11:04:35;;;;;;;8.90;4.90;;;;;;;;;;7414089;19;20002;-78
2022/09/13 11:07:16;;;;;;;9.10;4.88;;;;;;;;;;7416122;19;20518;-74
2022/09/13 11:09:53;;;;;;;6.70;3.90;;;;;;;;;;7406080;19;19994;-76
2022/09/13 11:12:19;;;;;;;9.10;4.93;;;;;;;;;;7409290;19;19999;-77
2022/09/13 11:15:07;;;;;;;8.33;4.20;;;;;;;;;;7419400;19;19999;-80
2022/09/13 11:17:53;;;;;;;8.50;4.47;;;;;;;;;;7417960;19;20243;-85
2022/09/13 11:20:29;;;;;;;10.25;4.32;;;;;;;;;;7411049;19;20021;-74
2022/09/13 11:23:25;;;;;;;8.45;4.63;;;;;;;;;;7396254;19;20003;-73
2022/09/13 11:26:24;;;;;;;9.98;5.53;;;;;;;;;;7387841;19;19986;-73
2022/09/13 11:29:36;;;;;;;8.77;4.70;;;;;;;;;;7386998;19;20062;-73
2022/09/13 11:32:11;;;;;;;10.10;5.22;;;;;;;;;;7389338;19;20449;-72
2022/09/13 11:34:48;;;;;;;9.25;4.90;;;;;;;;;;7391000;19;20563;-73
2022/09/13 11:37:38;;;;;;;8.82;4.93;;;;;;;;;;7390838;19;20002;-71
2022/09/13 11:40:24;;;;;;;9.00;4.30;;;;;;;;;;7389737;19;19991;-71
2022/09/13 11:43:15;;;;;;;9.15;5.10;;;;;;;;;;7390311;19;20070;-72
2022/09/13 11:45:47;;;;;;;7.80;4.45;;;;;;;;;;7391298;19;19991;-74
2022/09/13 11:48:39;;;;;;;9.73;4.70;;;;;;;;;;7389550;19;20029;-74
2022/09/13 11:51:33;;;;;;;7.90;4.45;;;;;;;;;;7390543;19;20044;-76
2022/09/13 11:54:16;;;;;;;8.32;4.45;;;;;;;;;;7392447;19;19987;-75
2022/09/13 11:56:45;;;;;;;6.95;4.32;;;;;;;;;;7390663;19;20003;-75
2022/09/13 11:59:57;;;;;;;7.75;4.43;;;;;;;;;;7389729;19;19991;-75
2022/09/13 12:02:26;;;;;;;7.70;4.38;;;;;;;;;;7385445;19;20081;-76
2022/09/13 12:05:06;;;;;;;9.32;4.35;;;;;;;;;;7388294;19;20035;-78
2022/09/13 12:07:38;;;;;;;9.02;4.53;;;;;;;;;;7390673;19;20011;-72
2022/09/13 12:10:16;;;;;;;10.27;4.95;;;;;;;;;;7396168;19;19999;-76
2022/09/13 12:12:44;;;;;;;10.07;5.05;;;;;;;;;;7399000;19;19987;-77
2022/09/13 12:15:31;;;;;;;7.68;4.53;;;;;;;;;;7397642;19;20012;-73
2022/09/13 12:18:23;;;;;;;6.57;4.40;;;;;;;;;;7397097;19;20012;-74
2022/09/13 12:20:59;;;;;;;8.55;5.13;;;;;;;;;;7396120;19;20007;-73
2022/09/13 12:23:44;;;;;;;9.70;4.60;;;;;;;;;;7397344;19;20360;-72
2022/09/13 12:26:32;;;;;;;8.00;4.70;;;;;;;;;;7397461;19;20001;-74
2022/09/13 12:29:03;;;;;;;7.95;5.10;;;;;;;;;;7396521;19;20013;-74
2022/09/13 12:31:30;;;;;;;;;;;;;;;;;;7397372;19;20054;-79
2022/09/13 12:33:56;;;;;;;8.00;4.15;;;;;;;;;;7396609;19;19952;-86
2022/09/13 12:36:41;;;;;;;8.20;4.65;;;;;;;;;;7394657;19;20003;-77
2022/09/13 12:39:30;;;;;;;10.90;5.63;;;;;;;;;;7395585;19;19999;-78
2022/09/13 12:42:21;;;;;;;9.48;4.65;;;;;;;;;;7396908;19;20049;-79
2022/09/13 12:44:58;;;;;;;;;;;;;;;;;;7397029;19;20002;-78
2022/09/13 12:47:29;;;;;;;7.32;4.40;;;;;;;;;;7398693;19;20340;-77
2022/09/13 12:50:23;;;;;;;10.00;4.68;;;;;;;;;;7394689;19;20005;-75
2022/09/13 12:53:06;;;;;;;7.80;4.35;;;;;;;;;;7396895;19;20006;-76
2022/09/13 12:55:53;;;;;;;9.68;5.00;;;;;;;;;;7396031;19;20003;-77
2022/09/13 12:58:45;;;;;;;7.97;4.45;;;;;;;;;;7394713;19;20051;-73
2022/09/13 13:01:19;;;;;;;9.52;5.28;;;;;;;;;;7396236;19;19995;-77
2022/09/13 13:03:55;;;;;;;10.70;5.68;;;;;;;;;;7392666;19;20528;-73
2022/09/13 13:06:23;;;;;;;7.57;4.80;;;;;;;;;;7396341;19;20051;-74
2022/09/13 13:08:51;;;;;;;6.70;4.57;;;;;;;;;;7394568;19;20020;-77
2022/09/13 13:11:21;;;;;;;10.65;4.47;;;;;;;;;;7395866;19;19994;-76
2022/09/13 13:14:08;;;;;;;9.80;4.95;;;;;;;;;;7396587;19;20003;-74
2022/09/13 13:16:37;;;;;;;8.00;4.57;;;;;;;;;;7395435;19;20016;-77
2022/09/13 13:19:24;;;;;;;7.10;4.63;;;;;;;;;;7393708;19;20066;-77
2022/09/13 13:21:49;;;;;;;12.00;4.60;;;;;;;;;;7395766;19;19999;-77
2022/09/13 13:24:18;;;;;;;7.45;3.80;;;;;;;;;;7395457;19;20057;-78
2022/09/13 13:26:55;;;;;;;7.65;4.60;;;;;;;;;;7396080;19;20443;-78
2022/09/13 13:29:39;;;;;;;7.57;5.00;;;;;;;;;;7395508;19;20000;-80
2022/09/13 13:32:10;;;;;;;11.35;5.07;;;;;;;;;;7391702;19;20002;-70
2022/09/13 13:34:58;;;;;;;8.35;4.78;;;;;;;;;;7389732;19;20037;-69
2022/09/13 13:37:32;;;;;;;8.65;4.40;;;;;;;;;;7390589;19;20013;-72
2022/09/13 13:40:20;;;;;;;7.93;4.32;;;;;;;;;;7392234;19;20006;-72
2022/09/13 13:42:48;;;;;;;8.68;5.00;;;;;;;;;;7395148;19;20002;-71
2022/09/13 13:45:18;;;;;;;7.78;4.47;;;;;;;;;;7392119;19;20002;-72
2022/09/13 13:48:06;;;;;;;7.72;4.22;;;;;;;;;;7393015;19;20028;-72
2022/09/13 13:50:33;;;;;;;8.82;5.22;;;;;;;;;;7395038;19;20670;-71
2022/09/13 13:53:12;;;;;;;7.47;4.68;;;;;;;;;;7395493;19;20003;-73
2022/09/13 13:55:45;;;;;;;13.77;4.50;;;;;;;;;;7392185;19;20003;-75
2022/09/13 13:58:29;;;;;;;9.38;4.47;;;;;;;;;;7393995;19;20007;-69
2022/09/13 14:00:57;;;;;;;7.63;4.30;;;;;;;;;;7392352;19;20358;-69
2022/09/13 14:03:26;;;;;;;7.03;4.25;;;;;;;;;;7391010;19;20002;-75
2022/09/13 14:06:15;;;;;;;12.60;4.80;;;;;;;;;;7393404;19;19999;-74
2022/09/13 14:09:11;;;;;;;8.18;4.68;;;;;;;;;;7393223;19;20110;-76
2022/09/13 14:11:43;;;;;;;8.70;4.82;;;;;;;;;;7393340;19;20088;-75
2022/09/13 14:14:27;;;;;;;7.85;4.82;;;;;;;;;;7393834;19;20367;-74
2022/09/13 14:17:11;;;;;;;9.95;4.72;;;;;;;;;;7394492;19;20533;-75
2022/09/13 14:19:46;;;;;;;9.65;5.53;;;;;;;;;;7389922;19;20006;-75
2022/09/13 14:22:28;;;;;;;10.55;5.25;;;;;;;;;;7392997;19;19998;-68
2022/09/13 14:25:11;;;;;;;8.40;4.82;;;;;;;;;;7394735;19;20429;-70
2022/09/13 14:27:40;;;;;;;7.55;4.18;;;;;;;;;;7389707;19;20021;-69
2022/09/13 14:30:21;;;;;;;8.32;5.13;;;;;;;;;;7390885;19;20027;-70
2022/09/13 14:32:52;;;;;;;8.10;4.43;;;;;;;;;;7397071;19;20346;-70
2022/09/13 14:35:31;;;;;;;7.80;4.97;;;;;;;;;;7395832;19;19998;-70
2022/09/13 14:38:19;;;;;;;9.30;4.63;;;;;;;;;;7392373;19;20003;-71
2022/09/13 14:40:51;;;;;;;15.65;5.20;;;;;;;;;;7393640;19;19995;-70
2022/09/13 14:43:19;;;;;;;7.32;4.32;;;;;;;;;;7392913;19;19994;-70
2022/09/13 14:45:49;;;;;;;6.65;3.97;;;;;;;;;;7393138;19;19999;-69
2022/09/13 14:48:28;;;;;;;10.35;4.25;;;;;;;;;;7392415;19;20040;-69
2022/09/13 14:50:58;;;;;;;8.18;4.53;;;;;;;;;;7393670;19;20015;-69
2022/09/13 14:53:27;;;;;;;9.70;4.90;;;;;;;;;;7391369;19;20015;-69
2022/09/13 14:55:58;;;;;;;8.07;4.70;;;;;;;;;;7390101;19;20010;-70
2022/09/13 15:00:55;;;;;;;7.60;4.65;;;;;;;;;;7391142;19;20021;-68
2022/09/13 15:03:21;;;;;;;9.18;5.13;;;;;;;;;;7391500;19;20001;-67
2022/09/13 15:05:56;;;;;;;9.13;5.05;;;;;;;;;;7391905;19;19994;-67
2022/09/13 15:08:27;;;;;;;7.50;4.13;;;;;;;;;;7392167;19;20058;-68
2022/09/13 15:10:56;;;;;;;7.85;4.32;;;;;;;;;;7391717;19;19995;-68
2022/09/13 15:13:21;;;;;;;7.32;4.47;;;;;;;;;;7390653;19;19995;-68
2022/09/13 15:15:47;;;;;;;12.48;4.85;;;;;;;;;;7388889;19;20090;-67
2022/09/13 15:18:19;;;;;;;8.90;5.28;;;;;;;;;;7388856;19;19990;-67
2022/09/13 15:20:53;;;;;;;8.98;4.22;;;;;;;;;;7391341;19;19995;-66
2022/09/13 15:23:33;;;;;;;7.65;4.35;;;;;;;;;;7388029;19;20062;-67
2022/09/13 15:26:11;;;;;;;6.55;4.35;;;;;;;;;;7389260;19;20013;-67
2022/09/13 15:28:42;;;;;;;7.55;3.85;;;;;;;;;;7378140;19;20062;-68